createdAt,value
2023-01-23T00:02:26.389Z,16.13
2023-01-23T00:04:55.628Z,16.33
2023-01-23T00:07:26.429Z,17.10
2023-01-23T00:09:55.684Z,17.03
2023-01-23T00:12:25.871Z,16.60
2023-01-23T00:14:55.006Z,16.17
2023-01-23T00:17:27.317Z,16.87
2023-01-23T00:19:56.545Z,16.83
2023-01-23T00:22:27.313Z,15.70
2023-01-23T00:24:56.610Z,15.97
2023-01-23T00:27:26.389Z,17.07
2023-01-23T00:29:55.726Z,16.40
2023-01-23T00:32:25.676Z,16.30
2023-01-23T00:34:55.965Z,17.33
2023-01-23T00:37:26.745Z,15.17
2023-01-23T00:39:55.929Z,16.80
2023-01-23T00:42:25.196Z,14.73
2023-01-23T00:44:54.530Z,15.57
2023-01-23T00:47:24.216Z,16.87
2023-01-23T00:49:54.210Z,16.80
2023-01-23T00:52:23.374Z,15.80
2023-01-23T00:54:54.293Z,15.27
2023-01-23T00:57:23.609Z,18.07
2023-01-23T00:59:52.919Z,16.67
2023-01-23T01:02:22.106Z,17.17
2023-01-23T01:04:51.544Z,15.03
2023-01-23T01:07:21.121Z,16.43
2023-01-23T01:09:50.467Z,17.80
2023-01-23T01:12:21.162Z,16.97
2023-01-23T01:14:50.366Z,18.23
2023-01-23T01:17:19.760Z,17.73
2023-01-23T01:19:50.243Z,17.37
2023-01-23T01:22:19.504Z,17.80
2023-01-23T01:24:48.750Z,17.87
2023-01-23T01:27:17.956Z,16.90
2023-01-23T01:29:48.814Z,16.30
2023-01-23T01:32:18.114Z,16.37
2023-01-23T01:34:50.362Z,15.80
2023-01-23T01:37:20.437Z,15.90
2023-01-23T01:39:49.785Z,18.60
2023-01-23T01:42:19.309Z,16.77
2023-01-23T01:44:59.040Z,16.53
2023-01-23T01:47:28.312Z,17.67
2023-01-23T01:50:07.958Z,18.33
2023-01-23T01:52:37.301Z,16.53
2023-01-23T01:55:07.873Z,17.87
2023-01-23T01:57:39.983Z,17.60
2023-01-23T02:00:15.899Z,17.10
2023-01-23T02:02:50.722Z,17.80
2023-01-23T02:05:23.936Z,16.27
2023-01-23T02:07:56.175Z,18.00
2023-01-23T02:10:25.526Z,18.20
2023-01-23T02:12:55.344Z,18.33
2023-01-23T02:15:27.729Z,18.13
2023-01-23T02:17:57.463Z,17.93
2023-01-23T02:20:29.328Z,17.30
2023-01-23T02:23:07.175Z,18.63
2023-01-23T02:25:42.403Z,18.70
2023-01-23T02:28:15.295Z,17.90
2023-01-23T02:30:47.508Z,16.73
2023-01-23T02:33:46.543Z,18.90
2023-01-23T02:36:18.141Z,18.93
2023-01-23T02:38:55.044Z,19.37
2023-01-23T02:41:30.611Z,18.33
2023-01-23T02:44:06.364Z,17.60
2023-01-23T02:46:35.969Z,18.60
2023-01-23T02:49:06.165Z,19.10
2023-01-23T02:51:36.353Z,16.40
2023-01-23T02:54:05.831Z,18.00
2023-01-23T02:56:35.352Z,17.23
2023-01-23T02:59:23.359Z,18.37
2023-01-23T03:01:52.600Z,18.70
2023-01-23T03:04:21.872Z,18.40
2023-01-23T03:06:51.458Z,17.03
2023-01-23T03:09:21.265Z,19.40
2023-01-23T03:11:50.952Z,17.10
2023-01-23T03:14:23.788Z,18.37
2023-01-23T03:16:54.272Z,18.20
2023-01-23T03:19:27.604Z,17.07
2023-01-23T03:21:56.894Z,18.47
2023-01-23T03:24:26.090Z,18.70
2023-01-23T03:26:55.444Z,19.50
2023-01-23T03:29:46.560Z,17.83
2023-01-23T03:32:17.703Z,18.20
2023-01-23T03:34:47.209Z,18.83
2023-01-23T03:37:17.669Z,20.60
2023-01-23T03:40:06.003Z,18.77
2023-01-23T03:42:36.256Z,17.37
2023-01-23T03:45:10.032Z,17.23
2023-01-23T03:47:39.365Z,20.07
2023-01-23T03:50:10.709Z,20.03
2023-01-23T03:52:42.664Z,18.53
2023-01-23T03:55:12.689Z,19.87
2023-01-23T03:57:42.584Z,20.17
2023-01-23T04:00:22.872Z,19.10
2023-01-23T04:03:02.780Z,17.87
2023-01-23T04:05:32.151Z,19.03
2023-01-23T04:08:03.173Z,20.03
2023-01-23T04:10:32.957Z,19.73
2023-01-23T04:13:09.725Z,20.03
2023-01-23T04:15:42.045Z,19.67
2023-01-23T04:18:11.681Z,18.80
2023-01-23T04:20:41.368Z,19.20
2023-01-23T04:23:10.888Z,21.53
2023-01-23T04:25:40.088Z,19.77
2023-01-23T04:28:14.695Z,20.77
2023-01-23T04:30:45.861Z,21.93
2023-01-23T04:33:24.528Z,21.70
2023-01-23T04:35:58.140Z,23.47
2023-01-23T04:38:31.623Z,23.10
2023-01-23T04:41:15.788Z,23.20
2023-01-23T04:43:45.983Z,22.77
2023-01-23T04:46:16.848Z,21.90
2023-01-23T04:49:03.223Z,22.60
2023-01-23T04:51:32.565Z,23.13
2023-01-23T04:54:01.812Z,23.30
2023-01-23T04:56:31.151Z,23.23
2023-01-23T04:59:02.056Z,23.27
2023-01-23T05:01:32.736Z,25.17
2023-01-23T05:04:05.253Z,23.53
2023-01-23T05:06:35.268Z,22.93
2023-01-23T05:09:05.829Z,23.20
2023-01-23T05:11:41.765Z,20.53
2023-01-23T05:14:13.592Z,23.70
2023-01-23T05:16:45.685Z,22.90
2023-01-23T05:19:22.789Z,22.07
2023-01-23T05:21:52.680Z,21.40
2023-01-23T05:24:23.636Z,24.27
2023-01-23T05:26:53.153Z,23.40
2023-01-23T05:29:22.768Z,23.13
2023-01-23T05:32:05.819Z,24.40
2023-01-23T05:34:41.240Z,21.67
2023-01-23T05:37:20.711Z,21.60
2023-01-23T05:39:54.382Z,21.53
2023-01-23T05:42:24.129Z,22.77
2023-01-23T05:45:12.901Z,21.70
2023-01-23T05:47:46.499Z,24.40
2023-01-23T05:50:20.730Z,24.20
2023-01-23T05:52:50.093Z,22.17
2023-01-23T05:55:20.306Z,22.70
2023-01-23T05:57:51.056Z,18.80
2023-01-23T06:00:32.224Z,22.97
2023-01-23T06:03:25.982Z,20.67
2023-01-23T06:06:10.346Z,20.43
2023-01-23T06:08:39.586Z,22.40
2023-01-23T06:11:09.417Z,23.20
2023-01-23T06:13:38.627Z,23.90
2023-01-23T06:16:10.866Z,22.50
2023-01-23T06:18:42.104Z,24.17
2023-01-23T06:21:11.751Z,20.77
2023-01-23T06:23:42.022Z,22.23
2023-01-23T06:26:12.109Z,21.03
2023-01-23T06:28:42.088Z,20.40
2023-01-23T06:31:11.650Z,21.00
2023-01-23T06:33:56.334Z,21.53
2023-01-23T06:36:31.832Z,20.33
2023-01-23T06:39:01.608Z,21.60
2023-01-23T06:41:38.394Z,22.47
2023-01-23T06:44:09.884Z,20.30
2023-01-23T06:46:39.320Z,22.20
2023-01-23T06:49:11.586Z,20.70
2023-01-23T06:51:41.187Z,22.37
2023-01-23T06:54:13.074Z,22.83
2023-01-23T06:56:42.790Z,20.47
2023-01-23T06:59:13.484Z,22.50
2023-01-23T07:01:43.967Z,20.33
2023-01-23T07:04:37.954Z,21.33
2023-01-23T07:07:07.697Z,21.87
2023-01-23T07:09:37.188Z,21.67
2023-01-23T07:12:12.266Z,21.17
2023-01-23T07:14:42.540Z,21.23
2023-01-23T07:17:14.337Z,21.53
2023-01-23T07:19:45.124Z,22.13
2023-01-23T07:22:19.942Z,21.10
2023-01-23T07:24:49.353Z,20.33
2023-01-23T07:27:18.964Z,21.10
2023-01-23T07:29:51.821Z,21.40
2023-01-23T07:32:21.479Z,22.10
2023-01-23T07:34:53.584Z,21.37
2023-01-23T07:37:23.118Z,22.10
2023-01-23T07:39:52.709Z,21.63
2023-01-23T07:42:22.099Z,22.80
2023-01-23T07:44:51.464Z,19.93
2023-01-23T07:47:20.838Z,21.70
2023-01-23T07:49:51.532Z,20.93
2023-01-23T07:52:20.832Z,19.70
2023-01-23T07:54:50.110Z,21.07
2023-01-23T07:57:19.507Z,18.83
2023-01-23T07:59:49.438Z,18.63
2023-01-23T08:02:18.733Z,18.80
2023-01-23T08:04:48.148Z,21.17
2023-01-23T08:07:18.908Z,20.67
2023-01-23T08:09:48.489Z,20.47
2023-01-23T08:12:17.807Z,21.20
2023-01-23T08:14:48.627Z,18.73
2023-01-23T08:17:18.629Z,20.77
2023-01-23T08:19:48.113Z,19.20
2023-01-23T08:22:18.858Z,19.13
2023-01-23T08:24:48.652Z,19.50
2023-01-23T08:27:18.607Z,19.67
2023-01-23T08:29:48.215Z,20.30
2023-01-23T08:32:17.719Z,20.17
2023-01-23T08:34:47.626Z,21.80
2023-01-23T08:37:18.879Z,20.20
2023-01-23T08:39:48.322Z,19.70
2023-01-23T08:42:17.598Z,19.93
2023-01-23T08:44:47.392Z,19.97
2023-01-23T08:47:16.848Z,19.53
2023-01-23T08:49:46.695Z,18.83
2023-01-23T08:52:17.724Z,19.13
2023-01-23T08:54:47.227Z,18.07
2023-01-23T08:57:17.924Z,20.07
2023-01-23T08:59:47.667Z,20.07
2023-01-23T09:02:16.954Z,20.10
2023-01-23T09:04:46.657Z,19.23
2023-01-23T09:07:18.047Z,20.70
2023-01-23T09:09:47.448Z,19.53
2023-01-23T09:12:16.759Z,21.13
2023-01-23T09:14:46.287Z,19.87
2023-01-23T09:17:15.912Z,18.70
2023-01-23T09:19:45.333Z,20.30
2023-01-23T09:22:14.584Z,19.17
2023-01-23T09:24:45.379Z,18.53
2023-01-23T09:27:14.847Z,19.97
2023-01-23T09:29:44.190Z,19.23
2023-01-23T09:32:13.753Z,18.90
2023-01-23T09:34:43.501Z,19.17
2023-01-23T09:37:12.915Z,19.67
2023-01-23T09:39:43.669Z,19.70
2023-01-23T09:42:19.565Z,20.67
2023-01-23T09:44:52.951Z,20.37
2023-01-23T09:47:28.398Z,18.27
2023-01-23T09:50:03.232Z,18.10
2023-01-23T09:52:36.454Z,19.40
2023-01-23T09:55:16.702Z,19.97
2023-01-23T09:57:55.046Z,20.67
2023-01-23T10:00:27.803Z,21.37
2023-01-23T10:02:57.501Z,20.53
2023-01-23T10:05:34.645Z,22.17
2023-01-23T10:08:19.069Z,20.87
2023-01-23T10:11:03.609Z,21.23
2023-01-23T10:14:01.580Z,21.70
2023-01-23T10:16:52.083Z,22.80
2023-01-23T10:19:51.475Z,19.20
2023-01-23T10:22:36.374Z,19.90
2023-01-23T10:25:19.201Z,21.33
2023-01-23T10:27:50.432Z,19.13
2023-01-23T10:30:27.183Z,21.37
2023-01-23T10:33:00.398Z,24.77
2023-01-23T10:35:38.224Z,23.37
2023-01-23T10:38:19.702Z,26.93
2023-01-23T10:41:07.333Z,22.97
2023-01-23T10:43:37.350Z,25.43
2023-01-23T10:46:13.737Z,23.70
2023-01-23T10:48:45.847Z,24.40
2023-01-23T10:51:32.297Z,23.73
2023-01-23T10:54:07.205Z,24.87
2023-01-23T10:56:41.187Z,26.27
2023-01-23T10:59:24.010Z,25.63
2023-01-23T11:02:00.979Z,26.70
2023-01-23T11:04:33.774Z,27.47
2023-01-23T11:07:09.541Z,26.87
2023-01-23T11:09:54.967Z,26.50
2023-01-23T11:12:26.545Z,26.53
2023-01-23T11:15:18.784Z,25.60
2023-01-23T11:17:50.754Z,24.93
2023-01-23T11:20:28.418Z,25.87
2023-01-23T11:23:05.132Z,26.80
2023-01-23T11:25:38.354Z,26.07
2023-01-23T11:28:23.838Z,25.10
2023-01-23T11:31:12.233Z,23.73
2023-01-23T11:33:53.545Z,25.13
2023-01-23T11:36:44.652Z,24.10
2023-01-23T11:39:23.749Z,20.63
2023-01-23T11:41:53.868Z,22.03
2023-01-23T11:44:25.437Z,21.70
2023-01-23T11:47:25.410Z,20.87
2023-01-23T11:50:17.271Z,21.17
2023-01-23T11:52:56.429Z,20.37
2023-01-23T11:55:47.524Z,20.00
2023-01-23T11:58:28.944Z,21.43
2023-01-23T12:01:06.758Z,20.33
2023-01-23T12:04:03.654Z,19.87
2023-01-23T12:06:45.972Z,21.40
2023-01-23T12:09:17.405Z,19.53
2023-01-23T12:11:58.681Z,21.37
2023-01-23T12:14:33.770Z,21.17
2023-01-23T12:17:12.637Z,22.00
2023-01-23T12:20:02.410Z,21.90
2023-01-23T12:22:44.577Z,20.60
2023-01-23T12:25:25.835Z,22.47
2023-01-23T12:28:01.724Z,21.90
2023-01-23T12:30:54.401Z,22.33
2023-01-23T12:33:38.589Z,19.10
2023-01-23T12:36:40.357Z,19.77
2023-01-23T12:39:25.355Z,20.93
2023-01-23T12:42:04.103Z,18.93
2023-01-23T12:44:38.108Z,20.43
2023-01-23T12:47:12.919Z,21.90
2023-01-23T12:49:46.350Z,22.73
2023-01-23T12:52:22.346Z,21.60
2023-01-23T12:54:59.824Z,22.50
2023-01-23T13:00:48.203Z,22.30
2023-01-23T13:03:46.111Z,22.17
2023-01-23T13:06:36.310Z,24.33
2023-01-23T13:09:18.445Z,25.87
2023-01-23T13:12:03.445Z,23.93
2023-01-23T13:15:06.889Z,26.07
2023-01-23T13:17:40.308Z,24.33
2023-01-23T13:20:42.861Z,21.73
2023-01-23T13:23:30.820Z,21.53
2023-01-23T13:26:32.869Z,20.27
2023-01-23T13:29:07.799Z,23.70
2023-01-23T13:31:41.712Z,23.53
2023-01-23T13:34:40.530Z,23.13
2023-01-23T13:37:54.895Z,20.37
2023-01-23T13:40:26.274Z,23.77
2023-01-23T13:42:55.679Z,23.50
2023-01-23T13:45:33.390Z,22.60
2023-01-23T14:22:15.022Z,22.17
2023-01-23T14:24:46.383Z,22.90
2023-01-23T14:27:29.378Z,19.83
2023-01-23T14:30:00.846Z,18.17
2023-01-23T14:32:34.942Z,20.67
2023-01-23T14:35:18.534Z,19.27
2023-01-23T14:37:49.142Z,18.60
2023-01-23T14:40:27.073Z,19.17
2023-01-23T14:43:01.753Z,19.43
2023-01-23T14:45:33.896Z,20.57
2023-01-23T14:48:07.302Z,17.00
2023-01-23T14:50:38.639Z,19.30
2023-01-23T14:53:14.304Z,20.63
2023-01-23T14:55:48.663Z,18.67
2023-01-23T14:58:24.574Z,20.10
2023-01-23T15:00:56.435Z,19.20
2023-01-23T15:03:44.428Z,19.87
2023-01-23T15:06:20.882Z,18.70
2023-01-23T15:08:51.314Z,19.30
2023-01-23T15:11:28.152Z,18.10
2023-01-23T15:14:01.854Z,20.57
2023-01-23T15:16:35.272Z,20.73
2023-01-23T15:19:08.128Z,20.27
2023-01-23T15:21:40.892Z,22.93
2023-01-23T15:24:29.769Z,21.70
2023-01-23T15:27:05.267Z,21.03
2023-01-23T15:29:35.847Z,21.70
2023-01-23T15:32:17.269Z,21.50
2023-01-23T15:34:54.971Z,20.10
2023-01-23T15:37:27.657Z,21.00
2023-01-23T15:40:02.243Z,21.30
2023-01-23T15:42:34.719Z,21.73
2023-01-23T15:45:07.814Z,21.73
2023-01-23T15:47:37.179Z,20.83
2023-01-23T15:50:07.297Z,20.27
2023-01-23T15:52:50.023Z,20.17
2023-01-23T15:55:20.334Z,22.13
2023-01-23T15:57:49.895Z,21.20
2023-01-23T16:00:21.908Z,20.30
2023-01-23T16:02:56.671Z,21.13
2023-01-23T16:05:28.893Z,21.10
2023-01-23T16:08:01.429Z,22.50
2023-01-23T16:10:32.940Z,22.13
2023-01-23T16:13:02.464Z,22.47
2023-01-23T16:15:33.626Z,20.17
2023-01-23T16:18:04.823Z,22.37
2023-01-23T16:20:36.823Z,22.60
2023-01-23T16:23:15.461Z,22.23
2023-01-23T16:25:46.409Z,22.97
2023-01-23T16:28:17.767Z,23.70
2023-01-23T16:30:48.343Z,24.33
2023-01-23T16:33:18.205Z,24.10
2023-01-23T16:35:48.176Z,22.97
2023-01-23T16:38:23.960Z,22.37
2023-01-23T16:40:55.166Z,24.67
2023-01-23T16:43:25.230Z,23.53
2023-01-23T16:45:56.897Z,23.53
2023-01-23T16:48:28.864Z,27.30
2023-01-23T16:51:04.448Z,24.20
2023-01-23T16:53:39.746Z,24.07
2023-01-23T16:56:20.136Z,25.03
2023-01-23T16:58:51.345Z,24.53
2023-01-23T17:01:23.868Z,24.27
2023-01-23T17:03:59.435Z,25.63
2023-01-23T17:06:29.834Z,24.70
2023-01-23T17:09:01.838Z,23.70
2023-01-23T17:11:35.688Z,24.63
2023-01-23T17:14:08.701Z,25.87
2023-01-23T17:16:39.104Z,26.07
2023-01-23T17:19:18.083Z,26.07
2023-01-23T17:21:49.407Z,24.37
2023-01-23T17:24:21.346Z,25.93
2023-01-23T17:26:52.310Z,25.83
2023-01-23T17:29:25.565Z,25.13
2023-01-23T17:31:56.142Z,25.03
2023-01-23T17:34:29.879Z,24.80
2023-01-23T17:37:02.008Z,23.47
2023-01-23T17:39:36.055Z,25.53
2023-01-23T17:42:06.868Z,26.57
2023-01-23T17:44:43.838Z,26.57
2023-01-23T17:47:18.990Z,26.33
2023-01-23T17:49:54.983Z,27.43
2023-01-23T17:52:27.557Z,26.07
2023-01-23T17:55:00.693Z,25.90
2023-01-23T17:57:31.873Z,26.00
2023-01-23T18:00:02.128Z,26.70
2023-01-23T18:02:41.364Z,26.33
2023-01-23T18:05:15.130Z,27.80
2023-01-23T18:07:53.726Z,25.77
2023-01-23T18:10:29.982Z,26.07
2023-01-23T18:13:09.795Z,27.43
2023-01-23T18:15:47.608Z,26.63
2023-01-23T18:18:26.034Z,26.07
2023-01-23T18:20:58.571Z,25.73
2023-01-23T18:23:32.604Z,27.13
2023-01-23T18:26:21.265Z,27.70
2023-01-23T18:29:00.963Z,27.03
2023-01-23T18:31:41.352Z,26.60
2023-01-23T18:34:25.002Z,27.70
2023-01-23T18:37:05.860Z,26.77
2023-01-23T18:39:50.636Z,27.90
2023-01-23T18:42:29.240Z,27.67
2023-01-23T18:45:06.257Z,26.23
2023-01-23T18:47:40.692Z,28.90
2023-01-23T18:50:20.108Z,28.27
2023-01-23T18:53:09.978Z,28.93
2023-01-23T18:55:49.090Z,26.90
2023-01-23T18:58:41.591Z,28.40
2023-01-23T19:01:21.940Z,27.67
2023-01-23T19:03:56.178Z,27.67
2023-01-23T19:06:37.002Z,28.90
2023-01-23T19:09:19.151Z,27.27
2023-01-23T19:12:07.623Z,29.90
2023-01-23T19:15:04.067Z,28.30
2023-01-23T19:17:46.591Z,27.40
2023-01-23T19:20:26.788Z,30.47
2023-01-23T19:23:12.441Z,28.73
2023-01-23T19:25:48.719Z,30.00
2023-01-23T19:28:20.879Z,30.17
2023-01-23T19:30:55.516Z,29.80
2023-01-23T19:33:34.374Z,29.40
2023-01-23T19:36:11.828Z,30.47
2023-01-23T19:38:44.894Z,30.00
2023-01-23T19:41:34.265Z,29.53
2023-01-23T19:44:05.711Z,31.30
2023-01-23T19:46:38.763Z,30.90
2023-01-23T19:49:10.723Z,31.53
2023-01-23T19:51:44.594Z,31.60
2023-01-23T19:54:19.049Z,32.47
2023-01-23T19:56:50.647Z,32.77
2023-01-23T19:59:22.897Z,34.07
2023-01-23T20:02:01.443Z,33.77
2023-01-23T20:04:33.469Z,36.67
2023-01-23T20:07:06.946Z,35.23
2023-01-23T20:09:39.430Z,33.37
2023-01-23T20:12:12.900Z,33.17
2023-01-23T20:14:46.004Z,32.00
2023-01-23T20:17:21.120Z,32.57
2023-01-23T20:19:54.002Z,32.33
2023-01-23T20:22:26.023Z,33.03
2023-01-23T20:24:59.388Z,32.00
2023-01-23T20:27:31.663Z,33.97
2023-01-23T20:30:05.453Z,30.67
2023-01-23T20:32:41.185Z,31.67
2023-01-23T20:35:13.763Z,31.00
2023-01-23T20:37:45.527Z,31.90
2023-01-23T20:40:16.912Z,33.10
2023-01-23T20:42:50.093Z,33.17
2023-01-23T20:45:21.903Z,34.77
2023-01-23T20:47:55.048Z,32.17
2023-01-23T20:50:26.318Z,33.33
2023-01-23T20:53:14.346Z,30.67
2023-01-23T20:55:45.659Z,30.73
2023-01-23T20:58:35.218Z,31.27
2023-01-23T21:01:06.397Z,33.43
2023-01-23T21:03:39.830Z,30.60
2023-01-23T21:06:15.528Z,31.47
2023-01-23T21:08:46.911Z,31.93
2023-01-23T21:11:19.616Z,31.37
2023-01-23T21:13:56.729Z,32.70
2023-01-23T21:16:27.254Z,31.87
2023-01-23T21:19:00.300Z,31.53
2023-01-23T21:21:31.104Z,30.60
2023-01-23T21:24:01.414Z,28.90
2023-01-23T21:26:31.779Z,32.73
2023-01-23T21:29:02.395Z,32.43
2023-01-23T21:31:34.328Z,31.93
2023-01-23T21:34:07.648Z,30.47
2023-01-23T21:36:37.760Z,31.60
2023-01-23T21:39:10.390Z,32.17
2023-01-23T21:41:40.046Z,30.93
2023-01-23T21:44:10.904Z,31.23
2023-01-23T21:46:40.959Z,31.83
2023-01-23T21:49:12.137Z,31.83
2023-01-23T21:51:41.561Z,33.37
2023-01-23T21:54:11.638Z,31.70
2023-01-23T21:56:41.078Z,31.53
2023-01-23T21:59:10.459Z,34.07
2023-01-23T22:01:42.795Z,32.13
2023-01-23T22:04:16.924Z,33.10
2023-01-23T22:06:47.417Z,32.63
2023-01-23T22:09:18.649Z,33.47
2023-01-23T22:11:49.742Z,34.10
2023-01-23T22:14:19.893Z,32.83
2023-01-23T22:16:50.591Z,32.40
2023-01-23T22:19:25.568Z,33.27
2023-01-23T22:21:57.413Z,34.13
2023-01-23T22:24:27.018Z,32.97
2023-01-23T22:26:56.309Z,36.60
2023-01-23T22:29:25.688Z,33.87
2023-01-23T22:31:55.209Z,32.77
2023-01-23T22:34:29.195Z,33.20
2023-01-23T22:36:58.625Z,34.97
2023-01-23T22:39:28.055Z,33.10
2023-01-23T22:41:58.066Z,32.13
2023-01-23T22:44:27.652Z,31.87
2023-01-23T22:46:57.180Z,35.80
2023-01-23T22:49:28.047Z,34.10
2023-01-23T22:51:57.448Z,31.73
2023-01-23T22:54:26.950Z,32.17
2023-01-23T22:56:56.747Z,32.83
2023-01-23T22:59:26.018Z,32.70
2023-01-23T23:01:55.323Z,31.13
2023-01-23T23:04:24.592Z,32.53
2023-01-23T23:06:55.234Z,32.87
2023-01-23T23:09:24.529Z,32.60
2023-01-23T23:11:53.855Z,32.37
2023-01-23T23:14:23.203Z,32.60
2023-01-23T23:16:52.471Z,30.93
2023-01-23T23:19:21.709Z,30.43
2023-01-23T23:21:50.996Z,31.47
2023-01-23T23:24:21.773Z,33.87
2023-01-23T23:26:52.028Z,33.43
2023-01-23T23:29:21.273Z,36.07
2023-01-23T23:31:52.401Z,33.43
2023-01-23T23:34:22.006Z,31.57
2023-01-23T23:36:51.329Z,30.80
2023-01-23T23:39:22.221Z,33.50
2023-01-23T23:41:51.514Z,30.70
2023-01-23T23:44:21.598Z,32.10
2023-01-23T23:46:50.923Z,30.07
2023-01-23T23:49:20.621Z,33.03
2023-01-23T23:51:49.922Z,29.90
2023-01-23T23:54:19.335Z,31.93
2023-01-23T23:56:50.117Z,29.43
2023-01-23T23:59:19.593Z,31.63
